createdAt,value
2018-09-29T00:02:15.430Z,10.97
2018-09-29T00:04:45.445Z,11.03
2018-09-29T00:24:37.023Z,10.92
2018-09-29T00:27:06.844Z,10.87
2018-09-29T00:29:36.658Z,10.83
2018-09-29T00:49:28.499Z,10.20
2018-09-29T00:51:58.204Z,10.42
2018-09-29T00:54:27.813Z,10.47
2018-09-29T00:56:57.869Z,10.47
2018-09-29T00:59:27.611Z,10.37
2018-09-29T01:01:57.272Z,10.30
2018-09-29T01:04:27.335Z,10.10
2018-09-29T01:06:57.080Z,10.20
2018-09-29T01:09:26.767Z,10.23
2018-09-29T01:11:56.732Z,10.01
2018-09-29T01:14:26.491Z,9.95
2018-09-29T01:16:56.460Z,9.94
2018-09-29T01:19:26.388Z,10.11
2018-09-29T01:21:56.115Z,10.13
2018-09-29T01:24:25.814Z,10.16
2018-09-29T01:26:55.835Z,10.29
2018-09-29T01:29:25.486Z,10.43
2018-09-29T01:31:55.412Z,10.28
2018-09-29T01:51:47.042Z,10.36
2018-09-29T01:54:16.793Z,10.33
2018-09-29T01:56:46.394Z,10.27
2018-09-29T01:59:15.989Z,10.25
2018-09-29T02:01:45.715Z,10.08
2018-09-29T02:04:15.505Z,9.93
2018-09-29T02:06:45.569Z,9.87
2018-09-29T02:09:15.219Z,10.03
2018-09-29T02:11:45.164Z,9.83
2018-09-29T02:14:15.558Z,10.06
2018-09-29T02:16:45.286Z,10.17
2018-09-29T02:19:15.061Z,10.27
2018-09-29T02:21:44.949Z,10.31
2018-09-29T02:24:14.839Z,10.29
2018-09-29T02:26:44.752Z,10.33
2018-09-29T02:29:14.564Z,10.38
2018-09-29T02:31:44.382Z,10.35
2018-09-29T02:34:14.107Z,10.38
2018-09-29T02:54:06.586Z,10.34
2018-09-29T02:56:36.249Z,10.41
2018-09-29T02:59:05.931Z,10.29
2018-09-29T03:01:35.627Z,10.32
2018-09-29T03:04:05.204Z,10.17
2018-09-29T03:06:34.772Z,10.14
2018-09-29T03:09:06.301Z,10.15
2018-09-29T03:11:35.803Z,10.18
2018-09-29T03:14:05.677Z,10.25
2018-09-29T03:16:35.218Z,10.22
2018-09-29T03:19:04.957Z,10.19
2018-09-29T03:21:34.408Z,10.22
2018-09-29T03:24:04.329Z,10.19
2018-09-29T03:26:33.854Z,10.21
2018-09-29T03:29:03.557Z,10.15
2018-09-29T03:31:33.398Z,10.22
2018-09-29T03:34:03.115Z,10.17
2018-09-29T03:36:32.615Z,10.14
2018-09-29T03:39:02.397Z,10.08
2018-09-29T03:41:31.998Z,10.02
2018-09-29T03:44:01.806Z,10.21
2018-09-29T03:46:31.749Z,10.18
2018-09-29T03:49:01.503Z,10.19
2018-09-29T03:51:31.243Z,10.11
2018-09-29T03:54:01.536Z,9.93
2018-09-29T03:56:31.280Z,9.92
2018-09-29T03:59:01.156Z,9.94
2018-09-29T04:01:31.178Z,9.84
2018-09-29T04:04:01.133Z,9.81
2018-09-29T04:06:30.918Z,9.83
2018-09-29T04:09:00.954Z,9.81
2018-09-29T04:11:30.840Z,9.79
2018-09-29T04:14:01.258Z,9.82
2018-09-29T04:16:30.894Z,9.89
2018-09-29T04:19:00.809Z,10.02
2018-09-29T04:21:35.769Z,9.91
2018-09-29T04:24:05.683Z,9.94
2018-09-29T04:26:35.389Z,9.97
2018-09-29T04:29:05.225Z,9.91
2018-09-29T04:31:34.691Z,9.90
2018-09-29T04:34:04.636Z,9.91
2018-09-29T04:53:56.703Z,9.89
2018-09-29T04:56:26.602Z,9.92
2018-09-29T04:58:56.388Z,9.95
2018-09-29T05:01:26.323Z,9.98
2018-09-29T05:03:56.058Z,9.97
2018-09-29T05:06:26.092Z,10.08
2018-09-29T05:08:56.159Z,10.17
2018-09-29T05:11:25.963Z,10.26
2018-09-29T05:13:55.842Z,10.32
2018-09-29T05:16:25.935Z,10.37
2018-09-29T05:18:55.643Z,10.39
2018-09-29T05:21:25.550Z,10.48
2018-09-29T05:23:55.677Z,10.60
2018-09-29T05:26:25.590Z,10.58
2018-09-29T05:46:17.581Z,11.30
2018-09-29T05:48:47.330Z,11.27
2018-09-29T05:51:17.184Z,11.39
2018-09-29T05:53:47.088Z,11.46
2018-09-29T05:56:16.939Z,11.53
2018-09-29T05:58:46.703Z,11.70
2018-09-29T06:01:16.641Z,11.75
2018-09-29T06:21:08.102Z,12.52
2018-09-29T06:23:38.054Z,12.35
2018-09-29T06:26:07.863Z,12.37
2018-09-29T06:28:37.578Z,12.41
2018-09-29T06:31:07.601Z,12.27
2018-09-29T06:33:37.163Z,12.21
2018-09-29T06:36:06.725Z,12.27
2018-09-29T06:55:58.367Z,13.01
2018-09-29T07:15:50.141Z,12.96
2018-09-29T07:18:19.955Z,13.08
2018-09-29T07:38:11.573Z,13.82
2018-09-29T07:40:41.467Z,14.05
2018-09-29T07:43:11.092Z,14.25
2018-09-29T07:45:41.036Z,14.33
2018-09-29T07:48:10.662Z,14.46
2018-09-29T07:50:40.001Z,14.52
2018-09-29T07:53:09.481Z,14.78
2018-09-29T07:55:39.428Z,14.88
2018-09-29T07:58:09.233Z,14.96
2018-09-29T08:00:39.207Z,15.36
2018-09-29T08:03:08.930Z,15.73
2018-09-29T08:05:38.579Z,15.84
2018-09-29T08:25:31.155Z,15.62
2018-09-29T08:48:16.622Z,16.39
2018-09-29T09:08:09.858Z,16.96
2018-09-29T09:10:39.841Z,16.84
2018-09-29T09:13:09.479Z,16.78
2018-09-29T09:15:39.223Z,16.66
2018-09-29T09:18:09.383Z,16.56
2018-09-29T09:20:38.924Z,16.72
2018-09-29T09:23:08.612Z,16.79
2018-09-29T09:25:38.747Z,16.86
2018-09-29T09:28:08.679Z,16.89
2018-09-29T09:30:38.270Z,17.04
2018-09-29T09:33:08.238Z,17.03
2018-09-29T09:35:38.000Z,17.23
2018-09-29T09:38:07.757Z,17.43
2018-09-29T09:40:37.568Z,17.49
2018-09-29T10:00:34.526Z,18.07
2018-09-29T10:03:15.725Z,18.31
2018-09-29T10:05:45.292Z,18.32
2018-09-29T10:08:15.201Z,18.33
2018-09-29T10:10:44.901Z,18.46
2018-09-29T10:13:14.722Z,18.76
2018-09-29T10:15:44.445Z,19.11
2018-09-29T10:18:14.883Z,19.10
2018-09-29T10:38:06.887Z,20.88
2018-09-29T10:40:36.678Z,20.88
2018-09-29T10:43:06.408Z,20.97
2018-09-29T10:45:36.374Z,21.11
2018-09-29T10:48:06.162Z,20.93
2018-09-29T11:07:58.152Z,22.33
2018-09-29T11:10:28.193Z,22.70
2018-09-29T11:12:58.180Z,22.94
2018-09-29T11:15:27.851Z,23.30
2018-09-29T11:17:57.754Z,23.63
2018-09-29T11:20:28.204Z,23.57
2018-09-29T11:22:57.865Z,23.81
2018-09-29T11:25:27.858Z,23.62
2018-09-29T11:27:57.637Z,23.45
2018-09-29T11:30:27.159Z,23.24
2018-09-29T11:32:57.009Z,23.00
2018-09-29T11:52:49.505Z,21.11
2018-09-29T12:12:41.927Z,23.81
2018-09-29T12:15:11.416Z,23.95
2018-09-29T12:17:41.081Z,24.12
2018-09-29T12:49:07.871Z,22.72
2018-09-29T12:51:38.352Z,22.78
2018-09-29T12:54:08.370Z,23.14
2018-09-29T13:13:59.732Z,24.58
2018-09-29T13:16:29.447Z,25.68
2018-09-29T13:18:59.459Z,26.30
2018-09-29T13:21:29.076Z,26.64
2018-09-29T13:23:58.620Z,27.15
2018-09-29T13:26:28.936Z,26.88
2018-09-29T13:46:21.053Z,24.31
2018-09-29T14:06:13.611Z,23.31
2018-09-29T14:08:43.427Z,23.57
2018-09-29T14:11:13.258Z,23.77
2018-09-29T14:31:05.435Z,25.91
2018-09-29T14:33:35.043Z,25.02
2018-09-29T14:36:04.595Z,24.80
2018-09-29T14:38:34.065Z,24.52
2018-09-29T14:41:03.522Z,24.82
2018-09-29T14:43:32.858Z,24.84
2018-09-29T14:46:02.524Z,24.71
2018-09-29T14:48:32.015Z,23.88
2018-09-29T14:51:01.869Z,23.60
2018-09-29T15:10:54.065Z,23.62
2018-09-29T15:13:23.642Z,23.30
2018-09-29T15:33:15.423Z,21.85
2018-09-29T15:53:08.163Z,20.66
2018-09-29T15:55:38.197Z,20.55
2018-09-29T15:58:07.864Z,20.40
2018-09-29T16:00:37.653Z,20.31
2018-09-29T16:03:07.623Z,20.20
2018-09-29T16:05:37.109Z,20.15
2018-09-29T16:08:06.625Z,19.96
2018-09-29T16:27:58.206Z,19.33
2018-09-29T16:30:27.663Z,19.44
2018-09-29T16:50:20.271Z,18.86
2018-09-29T16:52:50.042Z,18.79
2018-09-29T17:12:41.624Z,17.99
2018-09-29T17:15:11.138Z,17.86
2018-09-29T17:17:41.029Z,17.76
2018-09-29T17:20:11.063Z,17.77
2018-09-29T17:22:40.537Z,17.68
2018-09-29T17:25:10.194Z,17.71
2018-09-29T17:27:40.460Z,17.62
2018-09-29T17:30:10.498Z,17.68
2018-09-29T17:50:02.906Z,17.12
2018-09-29T17:52:32.268Z,16.94
2018-09-29T17:55:02.019Z,16.82
2018-09-29T17:57:31.993Z,16.59
2018-09-29T18:00:01.896Z,16.48
2018-09-29T18:02:31.425Z,16.34
2018-09-29T18:05:01.244Z,16.36
2018-09-29T18:07:31.052Z,16.36
2018-09-29T18:10:00.534Z,16.36
2018-09-29T18:29:52.407Z,15.70
2018-09-29T18:32:21.989Z,15.63
2018-09-29T18:52:14.325Z,15.24
2018-09-29T18:54:44.033Z,15.17
2018-09-29T18:57:14.055Z,15.00
2018-09-29T18:59:44.421Z,14.94
2018-09-29T19:02:14.141Z,14.89
2018-09-29T19:04:43.906Z,14.94
2018-09-29T19:07:13.860Z,14.95
2018-09-29T19:27:05.680Z,14.44
2018-09-29T19:29:35.416Z,14.22
2018-09-29T19:32:05.265Z,14.37
2018-09-29T19:34:35.381Z,14.32
2018-09-29T19:37:05.053Z,14.29
2018-09-29T19:39:34.641Z,14.30
2018-09-29T19:42:04.535Z,14.23
2018-09-29T19:44:34.100Z,14.02
2018-09-29T19:47:03.871Z,14.02
2018-09-29T20:06:56.478Z,13.91
2018-09-29T20:26:48.923Z,13.58
2018-09-29T20:46:41.294Z,13.28
2018-09-29T20:49:11.062Z,13.26
2018-09-29T20:51:40.883Z,13.18
2018-09-29T20:54:10.498Z,13.14
2018-09-29T20:56:40.333Z,13.14
2018-09-29T20:59:10.057Z,13.14
2018-09-29T21:01:39.864Z,13.10
2018-09-29T21:04:09.563Z,13.11
2018-09-29T21:06:39.365Z,13.10
2018-09-29T21:09:09.662Z,13.00
2018-09-29T21:11:39.511Z,12.99
2018-09-29T21:14:09.323Z,13.03
2018-09-29T21:16:39.418Z,13.09
2018-09-29T21:19:09.449Z,13.03
2018-09-29T21:21:39.174Z,13.05
2018-09-29T21:24:09.130Z,12.96
2018-09-29T21:26:39.113Z,12.95
2018-09-29T21:29:08.964Z,12.97
2018-09-29T21:31:39.075Z,13.04
2018-09-29T21:34:08.824Z,12.95
2018-09-29T21:36:38.553Z,12.90
2018-09-29T21:39:09.219Z,12.90
2018-09-29T21:41:39.218Z,12.90
2018-09-29T21:44:08.942Z,12.96
2018-09-29T21:46:38.971Z,12.90
2018-09-29T21:49:08.718Z,12.88
2018-09-29T21:51:38.555Z,12.90
2018-09-29T21:54:08.627Z,12.91
2018-09-29T21:56:38.378Z,12.89
2018-09-29T21:59:08.193Z,12.77
2018-09-29T22:01:38.266Z,12.68
2018-09-29T22:04:08.104Z,12.74
2018-09-29T22:06:38.119Z,12.73
2018-09-29T22:09:09.023Z,12.70
2018-09-29T22:11:38.909Z,12.77
2018-09-29T22:14:08.729Z,12.73
2018-09-29T22:16:38.725Z,12.74
2018-09-29T22:19:08.545Z,12.72
2018-09-29T22:21:38.316Z,12.73
2018-09-29T22:24:08.410Z,12.81
2018-09-29T22:26:38.151Z,12.78
2018-09-29T22:29:07.863Z,12.90
2018-09-29T22:31:37.794Z,12.92
2018-09-29T22:34:07.593Z,12.87
2018-09-29T22:36:37.412Z,12.74
2018-09-29T22:39:09.667Z,12.82
2018-09-29T22:41:39.586Z,12.82
2018-09-29T22:44:09.442Z,12.86
2018-09-29T22:46:39.332Z,12.86
2018-09-29T22:49:09.090Z,12.87
2018-09-29T22:51:39.041Z,12.82
2018-09-29T22:54:09.301Z,12.81
2018-09-29T22:56:39.244Z,12.82
2018-09-29T22:59:08.976Z,12.82
2018-09-29T23:01:38.894Z,12.87
2018-09-29T23:04:08.784Z,12.90
2018-09-29T23:06:38.514Z,12.94
2018-09-29T23:09:10.732Z,12.87
2018-09-29T23:11:40.569Z,12.85
2018-09-29T23:14:10.391Z,12.80
2018-09-29T23:16:40.182Z,12.77
2018-09-29T23:19:10.101Z,12.77
2018-09-29T23:21:39.991Z,12.77
2018-09-29T23:24:10.281Z,12.83
2018-09-29T23:26:39.903Z,12.76
2018-09-29T23:29:09.685Z,12.81
2018-09-29T23:31:39.642Z,12.69
2018-09-29T23:34:09.495Z,12.67
2018-09-29T23:36:39.158Z,12.78
2018-09-29T23:39:10.381Z,12.71
2018-09-29T23:41:40.134Z,12.67
2018-09-29T23:44:09.964Z,12.61
2018-09-29T23:46:39.746Z,12.59
2018-09-29T23:49:09.524Z,12.58
2018-09-29T23:51:39.454Z,12.54
2018-09-29T23:54:09.647Z,12.52
2018-09-29T23:56:39.569Z,12.48
2018-09-29T23:59:09.508Z,12.55
